createdAt,value
2023-01-11T00:02:20.177Z,4.25
2023-01-11T00:05:36.628Z,4.27
2023-01-11T00:12:09.188Z,4.32
2023-01-11T00:15:26.002Z,4.29
2023-01-11T00:18:42.960Z,4.30
2023-01-11T00:22:00.313Z,4.30
2023-01-11T00:25:17.439Z,4.26
2023-01-11T00:28:33.656Z,4.25
2023-01-11T00:31:49.889Z,4.28
2023-01-11T00:35:06.084Z,4.29
2023-01-11T00:41:52.034Z,4.32
2023-01-11T00:45:23.363Z,4.35
2023-01-11T00:48:39.462Z,4.29
2023-01-11T00:51:55.732Z,4.34
2023-01-11T00:55:13.036Z,4.33
2023-01-11T00:58:31.385Z,4.32
2023-01-11T01:01:48.210Z,4.33
2023-01-11T01:05:04.898Z,4.32
2023-01-11T01:08:20.920Z,4.36
2023-01-11T01:11:36.821Z,4.40
2023-01-11T01:14:58.867Z,4.38
2023-01-11T01:18:15.309Z,4.35
2023-01-11T01:21:31.910Z,4.38
2023-01-11T01:24:48.265Z,4.44
2023-01-11T01:28:04.565Z,4.47
2023-01-11T01:31:21.345Z,4.51
2023-01-11T01:34:38.620Z,4.51
2023-01-11T01:41:48.913Z,4.44
2023-01-11T01:45:24.833Z,4.42
2023-01-11T01:48:41.108Z,4.40
2023-01-11T01:52:00.727Z,4.33
2023-01-11T01:58:36.246Z,4.33
2023-01-11T02:01:54.357Z,4.35
2023-01-11T02:05:12.074Z,4.42
2023-01-11T02:11:44.640Z,4.43
2023-01-11T02:15:02.149Z,4.40
2023-01-11T02:18:22.454Z,4.42
2023-01-11T02:21:43.813Z,4.39
2023-01-11T02:25:21.886Z,4.35
2023-01-11T02:28:42.594Z,4.34
2023-01-11T02:32:03.986Z,4.37
2023-01-11T02:35:26.699Z,4.36
2023-01-11T02:42:18.024Z,4.32
2023-01-11T02:45:46.989Z,4.33
2023-01-11T02:49:08.315Z,4.33
2023-01-11T02:52:30.484Z,4.32
2023-01-11T02:55:52.647Z,4.24
2023-01-11T02:59:10.022Z,4.20
2023-01-11T03:02:26.151Z,4.18
2023-01-11T03:05:48.125Z,4.15
2023-01-11T03:12:52.002Z,4.10
2023-01-11T03:16:34.173Z,4.11
2023-01-11T03:19:55.548Z,4.10
2023-01-11T03:27:54.449Z,4.03
2023-01-11T03:31:17.553Z,4.06
2023-01-11T03:34:39.424Z,4.04
2023-01-11T03:38:00.304Z,4.03
2023-01-11T03:44:36.669Z,4.05
2023-01-11T03:47:52.842Z,4.10
2023-01-11T03:51:12.522Z,4.11
2023-01-11T03:57:50.236Z,4.24
2023-01-11T04:01:07.446Z,4.31
2023-01-11T04:04:23.838Z,4.28
2023-01-11T04:07:40.896Z,4.26
2023-01-11T04:10:57.176Z,4.21
2023-01-11T04:14:13.281Z,4.22
2023-01-11T04:17:29.654Z,4.27
2023-01-11T04:20:47.895Z,4.31
2023-01-11T04:24:03.991Z,4.30
2023-01-11T04:27:20.162Z,4.30
2023-01-11T04:30:38.058Z,4.33
2023-01-11T04:33:56.195Z,4.30
2023-01-11T04:37:12.889Z,4.26
2023-01-11T04:40:29.515Z,4.27
2023-01-11T04:43:45.592Z,4.32
2023-01-11T04:47:01.930Z,4.29
2023-01-11T04:50:20.161Z,4.21
2023-01-11T04:58:49.855Z,4.20
2023-01-11T05:02:06.044Z,4.17
2023-01-11T05:05:22.091Z,4.12
2023-01-11T05:08:39.743Z,4.09
2023-01-11T05:11:56.168Z,4.09
2023-01-11T05:15:16.332Z,4.09
2023-01-11T05:18:32.416Z,4.04
2023-01-11T05:21:50.294Z,4.05
2023-01-11T05:25:06.589Z,4.06
2023-01-11T05:28:22.610Z,4.11
2023-01-11T05:31:40.754Z,4.18
2023-01-11T05:34:57.600Z,4.21
2023-01-11T05:38:13.666Z,4.23
2023-01-11T05:41:32.801Z,4.13
2023-01-11T05:45:02.764Z,4.10
2023-01-11T05:48:19.062Z,4.07
2023-01-11T05:51:36.218Z,4.05
2023-01-11T05:54:52.686Z,3.99
2023-01-11T05:58:10.298Z,3.94
2023-01-11T06:01:29.432Z,3.94
2023-01-11T06:04:45.513Z,3.95
2023-01-11T06:08:03.641Z,3.93
2023-01-11T06:11:20.117Z,3.89
2023-01-11T06:14:38.133Z,3.90
2023-01-11T06:17:56.367Z,3.87
2023-01-11T06:21:11.495Z,3.91
2023-01-11T06:24:27.580Z,3.88
2023-01-11T06:27:45.543Z,3.95
2023-01-11T06:31:06.438Z,3.86
2023-01-11T06:34:23.120Z,3.87
2023-01-11T06:37:40.190Z,3.87
2023-01-11T06:41:01.623Z,3.86
2023-01-11T06:44:18.144Z,3.87
2023-01-11T06:47:34.344Z,3.88
2023-01-11T06:50:52.349Z,3.81
2023-01-11T06:54:08.731Z,3.92
2023-01-11T06:57:24.893Z,3.97
2023-01-11T07:00:41.527Z,3.94
2023-01-11T07:03:57.904Z,4.00
2023-01-11T07:07:14.142Z,4.00
2023-01-11T07:10:30.664Z,3.97
2023-01-11T07:13:46.941Z,3.95
2023-01-11T07:17:03.213Z,3.96
2023-01-11T07:20:21.787Z,3.99
2023-01-11T07:23:38.139Z,4.04
2023-01-11T07:26:56.488Z,4.02
2023-01-11T07:30:14.320Z,4.11
2023-01-11T07:33:31.987Z,4.15
2023-01-11T07:36:48.513Z,4.25
2023-01-11T07:40:05.224Z,4.30
2023-01-11T07:43:24.063Z,4.36
2023-01-11T07:46:41.028Z,4.47
2023-01-11T07:49:59.784Z,4.63
2023-01-11T07:53:16.403Z,4.65
2023-01-11T07:59:48.776Z,4.82
2023-01-11T08:03:06.028Z,4.66
2023-01-11T08:06:22.484Z,4.81
2023-01-11T08:13:10.784Z,5.15
2023-01-11T08:16:28.155Z,5.26
2023-01-11T08:19:44.781Z,5.43
2023-01-11T08:23:03.015Z,5.60
2023-01-11T08:26:21.179Z,5.87
2023-01-11T08:29:38.895Z,6.08
2023-01-11T08:32:55.781Z,6.21
2023-01-11T08:36:18.526Z,6.30
2023-01-11T08:39:41.484Z,6.24
2023-01-11T08:43:02.291Z,6.30
2023-01-11T08:46:20.266Z,6.38
2023-01-11T08:49:42.182Z,6.44
2023-01-11T08:52:58.854Z,5.93
2023-01-11T08:56:16.469Z,6.20
2023-01-11T08:59:34.003Z,6.21
2023-01-11T09:02:50.600Z,6.20
2023-01-11T09:06:07.470Z,6.06
2023-01-11T09:12:40.717Z,5.99
2023-01-11T09:15:57.433Z,5.99
2023-01-11T09:19:13.910Z,5.83
2023-01-11T09:22:32.859Z,5.62
2023-01-11T09:25:49.077Z,5.71
2023-01-11T09:29:05.739Z,5.89
2023-01-11T09:32:22.270Z,6.06
2023-01-11T09:35:40.303Z,6.20
2023-01-11T09:38:58.236Z,6.31
2023-01-11T09:42:40.419Z,6.27
2023-01-11T09:45:58.809Z,6.21
2023-01-11T09:49:21.310Z,5.91
2023-01-11T09:52:42.959Z,5.93
2023-01-11T09:56:03.762Z,5.77
2023-01-11T09:59:28.332Z,5.99
2023-01-11T10:02:58.690Z,6.11
2023-01-11T10:06:23.454Z,6.35
2023-01-11T10:18:39.367Z,6.70
2023-01-11T10:20:03.555Z,6.70
2023-01-11T10:23:26.855Z,6.69
2023-01-11T10:26:47.281Z,6.44
2023-01-11T10:30:14.459Z,6.43
2023-01-11T10:33:41.611Z,6.61
2023-01-11T10:37:08.700Z,6.83
2023-01-11T10:40:42.088Z,6.76
2023-01-11T10:44:05.942Z,6.59
2023-01-11T10:47:28.743Z,6.75
2023-01-11T10:50:53.775Z,6.40
2023-01-11T10:55:03.300Z,6.52
2023-01-11T10:58:29.038Z,6.62
2023-01-11T11:01:59.099Z,6.74
2023-01-11T11:05:27.739Z,6.61
2023-01-11T11:08:49.189Z,6.66
2023-01-11T11:15:26.134Z,6.89
2023-01-11T11:18:53.995Z,6.77
2023-01-11T11:22:10.526Z,6.98
2023-01-11T11:25:32.384Z,7.06
2023-01-11T11:29:04.623Z,7.12
2023-01-11T11:32:36.378Z,6.98
2023-01-11T11:35:55.018Z,7.01
2023-01-11T11:44:38.487Z,7.17
2023-01-11T11:48:15.476Z,7.07
2023-01-11T11:51:34.343Z,7.03
2023-01-11T11:54:58.906Z,7.03
2023-01-11T11:58:21.174Z,7.16
2023-01-11T12:01:41.550Z,7.07
2023-01-11T12:04:59.584Z,7.25
2023-01-11T12:08:23.055Z,7.29
2023-01-11T12:11:45.837Z,7.08
2023-01-11T12:15:31.706Z,7.03
2023-01-11T12:18:51.794Z,7.01
2023-01-11T12:22:28.701Z,7.00
2023-01-11T12:29:52.282Z,6.75
2023-01-11T12:33:39.965Z,6.85
2023-01-11T12:37:00.987Z,6.76
2023-01-11T12:43:49.066Z,6.76
2023-01-11T12:47:21.136Z,6.75
2023-01-11T12:50:42.274Z,6.70
2023-01-11T12:54:29.008Z,6.69
2023-01-11T12:57:58.293Z,6.80
2023-01-11T13:01:53.423Z,6.69
2023-01-11T13:05:24.068Z,6.68
2023-01-11T13:08:50.473Z,6.68
2023-01-11T13:12:13.450Z,6.53
2023-01-11T13:15:42.929Z,6.62
2023-01-11T13:19:04.467Z,6.67
2023-01-11T13:22:26.862Z,6.64
2023-01-11T13:25:48.492Z,6.59
2023-01-11T13:29:10.243Z,6.61
2023-01-11T13:32:29.778Z,6.62
2023-01-11T13:35:47.386Z,6.62
2023-01-11T13:39:08.402Z,6.61
2023-01-11T13:45:45.184Z,6.55
2023-01-11T13:49:05.900Z,6.55
2023-01-11T13:52:25.268Z,6.44
2023-01-11T13:59:06.589Z,6.42
2023-01-11T14:02:47.313Z,6.48
2023-01-11T14:06:16.928Z,6.50
2023-01-11T14:10:30.480Z,6.43
2023-01-11T14:14:26.906Z,6.27
2023-01-11T14:18:22.216Z,6.28
2023-01-11T14:21:44.981Z,6.15
2023-01-11T14:29:35.048Z,6.10
2023-01-11T14:33:43.916Z,6.06
2023-01-11T14:37:39.156Z,5.90
2023-01-11T14:41:14.095Z,5.91
2023-01-11T14:45:00.763Z,5.96
2023-01-11T14:48:34.928Z,5.87
2023-01-11T14:52:00.654Z,5.84
2023-01-11T14:56:03.731Z,5.80
2023-01-11T14:59:46.200Z,5.68
2023-01-11T15:03:19.157Z,5.62
2023-01-11T15:06:44.817Z,5.60
2023-01-11T15:10:04.045Z,5.46
2023-01-11T15:16:54.273Z,5.07
2023-01-11T15:20:18.614Z,4.86
2023-01-11T15:23:40.141Z,4.72
2023-01-11T15:27:00.319Z,4.72
2023-01-11T15:30:45.225Z,4.51
2023-01-11T15:34:08.050Z,4.31
2023-01-11T15:37:50.818Z,4.24
2023-01-11T15:44:43.864Z,4.28
2023-01-11T15:48:29.378Z,4.38
2023-01-11T15:52:19.609Z,4.40
2023-01-11T16:01:26.900Z,4.43
2023-01-11T16:04:48.712Z,4.29
2023-01-11T16:08:11.532Z,4.23
2023-01-11T16:11:34.907Z,4.20
2023-01-11T16:15:42.108Z,4.16
2023-01-11T16:19:03.223Z,4.12
2023-01-11T16:22:26.682Z,4.07
2023-01-11T16:30:31.238Z,4.07
2023-01-11T16:33:50.803Z,4.01
2023-01-11T16:37:05.235Z,4.01
2023-01-11T16:40:27.969Z,3.98
2023-01-11T16:43:50.350Z,3.97
2023-01-11T16:47:27.625Z,4.01
2023-01-11T16:50:44.791Z,3.78
2023-01-11T16:54:06.120Z,3.50
2023-01-11T16:57:24.109Z,3.46
2023-01-11T17:00:44.226Z,3.40
2023-01-11T17:04:04.937Z,3.35
2023-01-11T17:07:31.418Z,3.21
2023-01-11T17:16:20.822Z,2.63
2023-01-11T17:19:41.832Z,2.69
2023-01-11T17:23:01.417Z,2.21
2023-01-11T17:29:38.574Z,2.42
2023-01-11T17:33:00.264Z,2.37
2023-01-11T17:36:18.008Z,2.25
2023-01-11T17:39:37.727Z,2.22
2023-01-11T17:43:08.386Z,2.20
2023-01-11T17:46:28.142Z,2.13
2023-01-11T17:49:47.636Z,2.07
2023-01-11T17:53:19.115Z,1.93
2023-01-11T17:56:46.953Z,1.86
2023-01-11T18:00:29.307Z,2.01
2023-01-11T18:03:52.567Z,2.03
2023-01-11T18:07:21.424Z,1.82
2023-01-11T18:10:40.754Z,1.64
2023-01-11T18:17:20.394Z,1.51
2023-01-11T18:20:47.657Z,1.50
2023-01-11T18:24:43.070Z,1.49
2023-01-11T18:28:14.881Z,1.32
2023-01-11T18:31:31.768Z,1.37
2023-01-11T18:34:48.832Z,1.43
2023-01-11T18:38:05.463Z,1.47
2023-01-11T18:45:54.195Z,1.39
2023-01-11T18:49:28.401Z,1.31
2023-01-11T18:52:47.033Z,1.16
2023-01-11T18:56:11.359Z,1.25
2023-01-11T18:59:27.721Z,1.25
2023-01-11T19:02:48.300Z,1.37
2023-01-11T19:06:04.825Z,1.47
2023-01-11T19:09:21.141Z,1.49
2023-01-11T19:12:39.211Z,1.49
2023-01-11T19:15:56.168Z,1.34
2023-01-11T19:19:12.656Z,1.23
2023-01-11T19:22:28.824Z,1.15
2023-01-11T19:25:45.355Z,0.97
2023-01-11T19:29:01.621Z,1.05
2023-01-11T19:32:33.732Z,1.06
2023-01-11T19:35:50.892Z,1.20
2023-01-11T19:39:07.264Z,0.88
2023-01-11T19:42:24.541Z,0.85
2023-01-11T19:45:41.013Z,0.68
2023-01-11T19:48:58.126Z,0.76
2023-01-11T19:52:19.452Z,0.80
2023-01-11T19:55:35.792Z,0.80
2023-01-11T19:58:52.093Z,0.70
2023-01-11T20:02:08.541Z,0.67
2023-01-11T20:05:27.199Z,0.74
2023-01-11T20:08:44.703Z,0.84
2023-01-11T20:12:00.948Z,0.99
2023-01-11T20:15:19.214Z,0.91
2023-01-11T20:18:35.473Z,0.73
2023-01-11T20:21:52.148Z,0.50
2023-01-11T20:25:08.517Z,0.49
2023-01-11T20:28:26.044Z,0.61
2023-01-11T20:31:43.656Z,0.68
2023-01-11T20:35:00.013Z,0.71
2023-01-11T20:38:16.337Z,0.67
2023-01-11T20:41:54.874Z,0.63
2023-01-11T20:45:12.362Z,0.44
2023-01-11T20:48:28.542Z,0.36
2023-01-11T20:51:46.275Z,0.45
2023-01-11T20:55:02.626Z,0.50
2023-01-11T20:58:18.970Z,0.57
2023-01-11T21:01:35.973Z,0.60
2023-01-11T21:04:52.415Z,0.55
2023-01-11T21:08:08.613Z,0.53
2023-01-11T21:11:25.786Z,0.50
2023-01-11T21:14:42.083Z,0.57
2023-01-11T21:17:58.267Z,0.57
2023-01-11T21:21:18.661Z,0.55
2023-01-11T21:24:35.185Z,0.55
2023-01-11T21:27:51.327Z,0.49
2023-01-11T21:31:12.900Z,0.51
2023-01-11T21:34:29.624Z,0.50
2023-01-11T21:37:45.801Z,0.63
2023-01-11T21:41:02.360Z,0.66
2023-01-11T21:44:20.119Z,0.64
2023-01-11T21:47:36.604Z,0.64
2023-01-11T21:50:56.616Z,0.64
2023-01-11T21:54:19.073Z,0.66
2023-01-11T21:57:35.178Z,0.69
2023-01-11T22:00:52.604Z,0.82
2023-01-11T22:04:11.744Z,0.82
2023-01-11T22:07:27.991Z,0.85
2023-01-11T22:10:44.621Z,0.98
2023-01-11T22:14:00.683Z,1.11
2023-01-11T22:17:16.830Z,1.15
2023-01-11T22:20:34.987Z,1.29
2023-01-11T22:23:52.553Z,1.31
2023-01-11T22:27:09.873Z,1.23
2023-01-11T22:30:26.869Z,1.12
2023-01-11T22:33:44.040Z,1.23
2023-01-11T22:37:00.277Z,1.27
2023-01-11T22:40:20.119Z,1.37
2023-01-11T22:43:36.216Z,1.40
2023-01-11T22:46:53.124Z,1.47
2023-01-11T22:50:09.717Z,1.50
2023-01-11T22:53:26.192Z,1.50
2023-01-11T22:56:42.611Z,1.59
2023-01-11T22:59:58.992Z,1.68
2023-01-11T23:03:15.551Z,1.74
2023-01-11T23:06:34.829Z,1.84
2023-01-11T23:09:50.982Z,1.89
2023-01-11T23:13:20.940Z,2.01
2023-01-11T23:16:38.191Z,2.13
2023-01-11T23:19:54.814Z,2.24
2023-01-11T23:23:10.914Z,2.31
2023-01-11T23:26:27.289Z,2.37
2023-01-11T23:29:43.547Z,2.33
2023-01-11T23:32:59.594Z,2.13
2023-01-11T23:36:17.186Z,2.16
2023-01-11T23:39:33.535Z,2.23
2023-01-11T23:42:49.511Z,2.28
2023-01-11T23:46:09.242Z,2.36
2023-01-11T23:49:25.548Z,2.38
2023-01-11T23:52:42.632Z,2.34
2023-01-11T23:56:05.747Z,2.44
2023-01-11T23:59:22.321Z,2.50
